sensor_id;sensor_type;location;lat;lon;timestamp;P1;durP1;ratioP1;P2;durP2;ratioP2
26920;SDS011;14483;47.844;9.660;2022-11-28T00:00:27;13.10;;;7.97;;
26920;SDS011;14483;47.844;9.660;2022-11-28T00:02:53;14.45;;;7.95;;
26920;SDS011;14483;47.844;9.660;2022-11-28T00:05:20;14.52;;;8.75;;
26920;SDS011;14483;47.844;9.660;2022-11-28T00:07:47;15.05;;;8.95;;
26920;SDS011;14483;47.844;9.660;2022-11-28T00:10:14;15.13;;;8.80;;
26920;SDS011;14483;47.844;9.660;2022-11-28T00:12:40;12.98;;;7.22;;
26920;SDS011;14483;47.844;9.660;2022-11-28T00:15:07;12.45;;;7.43;;
26920;SDS011;14483;47.844;9.660;2022-11-28T00:17:33;13.13;;;7.95;;
26920;SDS011;14483;47.844;9.660;2022-11-28T00:20:00;13.40;;;8.13;;
26920;SDS011;14483;47.844;9.660;2022-11-28T00:22:26;13.23;;;7.75;;
26920;SDS011;14483;47.844;9.660;2022-11-28T00:24:54;13.73;;;8.52;;
26920;SDS011;14483;47.844;9.660;2022-11-28T00:27:21;14.23;;;8.57;;
26920;SDS011;14483;47.844;9.660;2022-11-28T00:29:47;16.85;;;9.15;;
26920;SDS011;14483;47.844;9.660;2022-11-28T00:32:13;13.98;;;8.50;;
26920;SDS011;14483;47.844;9.660;2022-11-28T00:34:40;13.10;;;7.40;;
26920;SDS011;14483;47.844;9.660;2022-11-28T00:37:06;15.02;;;8.77;;
26920;SDS011;14483;47.844;9.660;2022-11-28T00:39:32;14.50;;;7.55;;
26920;SDS011;14483;47.844;9.660;2022-11-28T00:42:00;13.90;;;7.75;;
26920;SDS011;14483;47.844;9.660;2022-11-28T00:44:26;12.00;;;7.32;;
26920;SDS011;14483;47.844;9.660;2022-11-28T00:46:53;13.05;;;7.40;;
26920;SDS011;14483;47.844;9.660;2022-11-28T00:49:19;13.30;;;6.43;;
26920;SDS011;14483;47.844;9.660;2022-11-28T00:51:46;10.23;;;5.65;;
26920;SDS011;14483;47.844;9.660;2022-11-28T00:54:12;14.27;;;8.75;;
26920;SDS011;14483;47.844;9.660;2022-11-28T00:56:39;11.73;;;7.32;;
26920;SDS011;14483;47.844;9.660;2022-11-28T00:59:06;14.65;;;7.78;;
26920;SDS011;14483;47.844;9.660;2022-11-28T01:01:33;13.48;;;7.75;;
26920;SDS011;14483;47.844;9.660;2022-11-28T01:04:01;14.43;;;8.93;;
26920;SDS011;14483;47.844;9.660;2022-11-28T01:06:28;13.75;;;8.07;;
26920;SDS011;14483;47.844;9.660;2022-11-28T01:08:56;15.20;;;8.57;;
26920;SDS011;14483;47.844;9.660;2022-11-28T01:11:23;15.52;;;8.23;;
26920;SDS011;14483;47.844;9.660;2022-11-28T01:13:49;12.55;;;7.90;;
26920;SDS011;14483;47.844;9.660;2022-11-28T01:16:17;14.27;;;8.95;;
26920;SDS011;14483;47.844;9.660;2022-11-28T01:18:43;15.65;;;8.40;;
26920;SDS011;14483;47.844;9.660;2022-11-28T01:21:10;13.43;;;8.43;;
26920;SDS011;14483;47.844;9.660;2022-11-28T01:23:36;14.02;;;8.50;;
26920;SDS011;14483;47.844;9.660;2022-11-28T01:26:03;13.68;;;7.47;;
26920;SDS011;14483;47.844;9.660;2022-11-28T01:28:30;14.57;;;9.00;;
26920;SDS011;14483;47.844;9.660;2022-11-28T01:31:01;14.55;;;8.18;;
26920;SDS011;14483;47.844;9.660;2022-11-28T01:33:28;12.38;;;8.40;;
26920;SDS011;14483;47.844;9.660;2022-11-28T01:35:55;13.43;;;7.50;;
26920;SDS011;14483;47.844;9.660;2022-11-28T01:38:22;14.00;;;8.23;;
26920;SDS011;14483;47.844;9.660;2022-11-28T01:40:49;13.75;;;7.68;;
26920;SDS011;14483;47.844;9.660;2022-11-28T01:43:16;13.55;;;7.75;;
26920;SDS011;14483;47.844;9.660;2022-11-28T01:45:42;11.82;;;7.15;;
26920;SDS011;14483;47.844;9.660;2022-11-28T01:48:09;12.65;;;7.85;;
26920;SDS011;14483;47.844;9.660;2022-11-28T01:50:38;14.55;;;8.35;;
26920;SDS011;14483;47.844;9.660;2022-11-28T01:53:05;15.15;;;7.88;;
26920;SDS011;14483;47.844;9.660;2022-11-28T01:55:34;14.77;;;7.13;;
26920;SDS011;14483;47.844;9.660;2022-11-28T01:58:00;11.68;;;7.70;;
26920;SDS011;14483;47.844;9.660;2022-11-28T02:00:27;11.57;;;7.70;;
26920;SDS011;14483;47.844;9.660;2022-11-28T02:02:55;13.75;;;7.40;;
26920;SDS011;14483;47.844;9.660;2022-11-28T02:05:23;11.55;;;7.70;;
26920;SDS011;14483;47.844;9.660;2022-11-28T02:07:51;11.88;;;6.97;;
26920;SDS011;14483;47.844;9.660;2022-11-28T02:10:19;13.23;;;7.50;;
26920;SDS011;14483;47.844;9.660;2022-11-28T02:12:53;14.15;;;8.00;;
26920;SDS011;14483;47.844;9.660;2022-11-28T02:15:28;9.75;;;6.32;;
26920;SDS011;14483;47.844;9.660;2022-11-28T02:18:00;12.85;;;7.03;;
26920;SDS011;14483;47.844;9.660;2022-11-28T02:23:16;13.00;;;7.00;;
26920;SDS011;14483;47.844;9.660;2022-11-28T02:28:36;9.98;;;6.70;;
26920;SDS011;14483;47.844;9.660;2022-11-28T02:31:09;11.48;;;6.88;;
26920;SDS011;14483;47.844;9.660;2022-11-28T02:33:40;12.82;;;7.53;;
26920;SDS011;14483;47.844;9.660;2022-11-28T02:36:09;12.75;;;7.10;;
26920;SDS011;14483;47.844;9.660;2022-11-28T02:38:41;14.02;;;7.95;;
26920;SDS011;14483;47.844;9.660;2022-11-28T02:41:14;12.02;;;7.07;;
26920;SDS011;14483;47.844;9.660;2022-11-28T02:43:43;12.60;;;7.78;;
26920;SDS011;14483;47.844;9.660;2022-11-28T02:46:13;12.90;;;7.95;;
26920;SDS011;14483;47.844;9.660;2022-11-28T02:48:44;12.95;;;7.47;;
26920;SDS011;14483;47.844;9.660;2022-11-28T02:51:15;11.43;;;6.93;;
26920;SDS011;14483;47.844;9.660;2022-11-28T02:53:44;11.02;;;6.25;;
26920;SDS011;14483;47.844;9.660;2022-11-28T02:56:11;10.57;;;6.53;;
26920;SDS011;14483;47.844;9.660;2022-11-28T02:58:38;13.18;;;6.68;;
26920;SDS011;14483;47.844;9.660;2022-11-28T03:01:05;12.40;;;7.32;;
26920;SDS011;14483;47.844;9.660;2022-11-28T03:03:35;12.05;;;6.45;;
26920;SDS011;14483;47.844;9.660;2022-11-28T03:06:06;12.98;;;7.43;;
26920;SDS011;14483;47.844;9.660;2022-11-28T03:08:36;12.20;;;7.10;;
26920;SDS011;14483;47.844;9.660;2022-11-28T03:11:07;10.68;;;6.47;;
26920;SDS011;14483;47.844;9.660;2022-11-28T03:13:37;11.45;;;6.93;;
26920;SDS011;14483;47.844;9.660;2022-11-28T03:16:06;13.23;;;7.03;;
26920;SDS011;14483;47.844;9.660;2022-11-28T03:18:38;13.85;;;6.63;;
26920;SDS011;14483;47.844;9.660;2022-11-28T03:21:08;12.50;;;7.57;;
26920;SDS011;14483;47.844;9.660;2022-11-28T03:23:37;11.07;;;6.53;;
26920;SDS011;14483;47.844;9.660;2022-11-28T03:26:08;11.80;;;6.50;;
26920;SDS011;14483;47.844;9.660;2022-11-28T03:28:37;10.65;;;6.88;;
26920;SDS011;14483;47.844;9.660;2022-11-28T03:31:05;11.52;;;6.85;;
26920;SDS011;14483;47.844;9.660;2022-11-28T03:33:33;10.80;;;6.93;;
26920;SDS011;14483;47.844;9.660;2022-11-28T03:36:01;11.82;;;7.22;;
26920;SDS011;14483;47.844;9.660;2022-11-28T03:38:30;9.63;;;6.10;;
26920;SDS011;14483;47.844;9.660;2022-11-28T03:41:00;10.18;;;6.10;;
26920;SDS011;14483;47.844;9.660;2022-11-28T03:43:29;12.55;;;6.95;;
26920;SDS011;14483;47.844;9.660;2022-11-28T03:45:59;11.25;;;6.45;;
26920;SDS011;14483;47.844;9.660;2022-11-28T03:48:28;10.23;;;6.30;;
26920;SDS011;14483;47.844;9.660;2022-11-28T03:50:57;11.32;;;6.22;;
26920;SDS011;14483;47.844;9.660;2022-11-28T03:53:26;10.20;;;5.97;;
26920;SDS011;14483;47.844;9.660;2022-11-28T03:55:59;12.85;;;6.75;;
26920;SDS011;14483;47.844;9.660;2022-11-28T03:58:26;10.93;;;6.68;;
26920;SDS011;14483;47.844;9.660;2022-11-28T04:00:57;11.52;;;6.70;;
26920;SDS011;14483;47.844;9.660;2022-11-28T04:03:25;9.85;;;6.40;;
26920;SDS011;14483;47.844;9.660;2022-11-28T04:05:57;10.45;;;6.40;;
26920;SDS011;14483;47.844;9.660;2022-11-28T04:08:27;11.35;;;6.30;;
26920;SDS011;14483;47.844;9.660;2022-11-28T04:10:55;11.57;;;6.32;;
26920;SDS011;14483;47.844;9.660;2022-11-28T04:13:25;9.02;;;5.93;;
26920;SDS011;14483;47.844;9.660;2022-11-28T04:15:53;10.15;;;6.82;;
26920;SDS011;14483;47.844;9.660;2022-11-28T04:18:23;9.40;;;5.90;;
26920;SDS011;14483;47.844;9.660;2022-11-28T04:20:50;9.98;;;6.07;;
26920;SDS011;14483;47.844;9.660;2022-11-28T04:23:18;11.10;;;6.55;;
26920;SDS011;14483;47.844;9.660;2022-11-28T04:25:45;13.35;;;6.13;;
26920;SDS011;14483;47.844;9.660;2022-11-28T04:28:16;13.85;;;6.45;;
26920;SDS011;14483;47.844;9.660;2022-11-28T04:30:45;19.77;;;10.32;;
26920;SDS011;14483;47.844;9.660;2022-11-28T04:33:13;15.60;;;8.57;;
26920;SDS011;14483;47.844;9.660;2022-11-28T04:35:41;18.15;;;9.40;;
26920;SDS011;14483;47.844;9.660;2022-11-28T04:38:09;11.23;;;6.88;;
26920;SDS011;14483;47.844;9.660;2022-11-28T04:40:37;10.65;;;6.75;;
26920;SDS011;14483;47.844;9.660;2022-11-28T04:43:06;11.98;;;6.38;;
26920;SDS011;14483;47.844;9.660;2022-11-28T04:45:34;9.68;;;6.50;;
26920;SDS011;14483;47.844;9.660;2022-11-28T04:48:03;12.75;;;7.20;;
26920;SDS011;14483;47.844;9.660;2022-11-28T04:50:30;10.82;;;6.50;;
26920;SDS011;14483;47.844;9.660;2022-11-28T04:52:58;10.98;;;6.93;;
26920;SDS011;14483;47.844;9.660;2022-11-28T04:55:28;10.18;;;6.85;;
26920;SDS011;14483;47.844;9.660;2022-11-28T04:57:57;10.98;;;7.07;;
26920;SDS011;14483;47.844;9.660;2022-11-28T05:00:25;11.95;;;7.20;;
26920;SDS011;14483;47.844;9.660;2022-11-28T05:02:52;13.75;;;7.35;;
26920;SDS011;14483;47.844;9.660;2022-11-28T05:05:21;11.07;;;6.97;;
26920;SDS011;14483;47.844;9.660;2022-11-28T05:07:47;9.68;;;6.10;;
26920;SDS011;14483;47.844;9.660;2022-11-28T05:10:14;10.93;;;6.60;;
26920;SDS011;14483;47.844;9.660;2022-11-28T05:12:41;11.10;;;5.97;;
26920;SDS011;14483;47.844;9.660;2022-11-28T05:15:08;10.82;;;6.53;;
26920;SDS011;14483;47.844;9.660;2022-11-28T05:17:35;9.77;;;5.82;;
26920;SDS011;14483;47.844;9.660;2022-11-28T05:20:02;11.52;;;6.43;;
26920;SDS011;14483;47.844;9.660;2022-11-28T05:22:30;10.77;;;5.90;;
26920;SDS011;14483;47.844;9.660;2022-11-28T05:24:56;9.20;;;6.25;;
26920;SDS011;14483;47.844;9.660;2022-11-28T05:27:23;11.57;;;6.57;;
26920;SDS011;14483;47.844;9.660;2022-11-28T05:29:49;11.35;;;6.68;;
26920;SDS011;14483;47.844;9.660;2022-11-28T05:32:17;11.70;;;6.82;;
26920;SDS011;14483;47.844;9.660;2022-11-28T05:34:43;12.30;;;6.95;;
26920;SDS011;14483;47.844;9.660;2022-11-28T05:37:10;13.02;;;7.13;;
26920;SDS011;14483;47.844;9.660;2022-11-28T05:39:37;12.75;;;7.72;;
26920;SDS011;14483;47.844;9.660;2022-11-28T05:42:04;13.95;;;7.80;;
26920;SDS011;14483;47.844;9.660;2022-11-28T05:44:30;12.40;;;7.28;;
26920;SDS011;14483;47.844;9.660;2022-11-28T05:46:57;13.48;;;7.45;;
26920;SDS011;14483;47.844;9.660;2022-11-28T05:49:23;15.98;;;7.20;;
26920;SDS011;14483;47.844;9.660;2022-11-28T05:51:50;13.80;;;7.97;;
26920;SDS011;14483;47.844;9.660;2022-11-28T05:54:16;13.75;;;7.40;;
26920;SDS011;14483;47.844;9.660;2022-11-28T05:56:44;12.27;;;6.70;;
26920;SDS011;14483;47.844;9.660;2022-11-28T05:59:11;10.45;;;5.95;;
26920;SDS011;14483;47.844;9.660;2022-11-28T06:01:37;11.95;;;6.72;;
26920;SDS011;14483;47.844;9.660;2022-11-28T06:04:04;13.68;;;7.97;;
26920;SDS011;14483;47.844;9.660;2022-11-28T06:06:31;11.10;;;6.75;;
26920;SDS011;14483;47.844;9.660;2022-11-28T06:08:58;12.32;;;7.05;;
26920;SDS011;14483;47.844;9.660;2022-11-28T06:11:25;12.27;;;6.95;;
26920;SDS011;14483;47.844;9.660;2022-11-28T06:13:53;12.73;;;7.38;;
26920;SDS011;14483;47.844;9.660;2022-11-28T06:16:20;12.90;;;7.32;;
26920;SDS011;14483;47.844;9.660;2022-11-28T06:18:47;14.30;;;7.53;;
26920;SDS011;14483;47.844;9.660;2022-11-28T06:21:17;12.00;;;8.10;;
26920;SDS011;14483;47.844;9.660;2022-11-28T06:23:43;15.05;;;7.85;;
26920;SDS011;14483;47.844;9.660;2022-11-28T06:26:10;11.57;;;7.38;;
26920;SDS011;14483;47.844;9.660;2022-11-28T06:28:37;14.75;;;8.48;;
26920;SDS011;14483;47.844;9.660;2022-11-28T06:31:07;23.48;;;10.50;;
26920;SDS011;14483;47.844;9.660;2022-11-28T06:33:34;20.90;;;11.18;;
26920;SDS011;14483;47.844;9.660;2022-11-28T06:36:00;23.58;;;11.70;;
26920;SDS011;14483;47.844;9.660;2022-11-28T06:38:28;23.88;;;10.35;;
26920;SDS011;14483;47.844;9.660;2022-11-28T06:40:55;16.90;;;9.52;;
26920;SDS011;14483;47.844;9.660;2022-11-28T06:43:21;19.60;;;9.00;;
26920;SDS011;14483;47.844;9.660;2022-11-28T06:45:48;14.20;;;8.27;;
26920;SDS011;14483;47.844;9.660;2022-11-28T06:48:15;14.65;;;7.80;;
26920;SDS011;14483;47.844;9.660;2022-11-28T06:50:42;14.20;;;8.60;;
26920;SDS011;14483;47.844;9.660;2022-11-28T06:53:08;17.20;;;9.05;;
26920;SDS011;14483;47.844;9.660;2022-11-28T06:55:34;24.65;;;11.60;;
26920;SDS011;14483;47.844;9.660;2022-11-28T06:58:01;19.63;;;9.43;;
26920;SDS011;14483;47.844;9.660;2022-11-28T07:00:27;13.77;;;7.68;;
26920;SDS011;14483;47.844;9.660;2022-11-28T07:02:53;13.45;;;6.20;;
26920;SDS011;14483;47.844;9.660;2022-11-28T07:05:21;9.55;;;6.43;;
26920;SDS011;14483;47.844;9.660;2022-11-28T07:07:51;9.95;;;5.20;;
26920;SDS011;14483;47.844;9.660;2022-11-28T07:10:18;9.40;;;5.07;;
26920;SDS011;14483;47.844;9.660;2022-11-28T07:12:44;7.63;;;5.05;;
26920;SDS011;14483;47.844;9.660;2022-11-28T07:15:10;7.75;;;4.30;;
26920;SDS011;14483;47.844;9.660;2022-11-28T07:17:37;7.80;;;4.93;;
26920;SDS011;14483;47.844;9.660;2022-11-28T07:20:04;8.88;;;4.68;;
26920;SDS011;14483;47.844;9.660;2022-11-28T07:25:00;9.13;;;4.88;;
26920;SDS011;14483;47.844;9.660;2022-11-28T07:27:26;7.15;;;4.45;;
26920;SDS011;14483;47.844;9.660;2022-11-28T07:29:52;11.77;;;5.93;;
26920;SDS011;14483;47.844;9.660;2022-11-28T07:32:19;11.75;;;6.30;;
26920;SDS011;14483;47.844;9.660;2022-11-28T07:34:45;11.77;;;6.10;;
26920;SDS011;14483;47.844;9.660;2022-11-28T07:37:12;8.98;;;5.20;;
26920;SDS011;14483;47.844;9.660;2022-11-28T07:39:40;13.25;;;6.00;;
26920;SDS011;14483;47.844;9.660;2022-11-28T07:42:07;13.55;;;7.03;;
26920;SDS011;14483;47.844;9.660;2022-11-28T07:44:34;12.40;;;6.55;;
26920;SDS011;14483;47.844;9.660;2022-11-28T07:47:00;12.57;;;5.55;;
26920;SDS011;14483;47.844;9.660;2022-11-28T07:49:27;10.10;;;6.28;;
26920;SDS011;14483;47.844;9.660;2022-11-28T07:51:53;13.02;;;6.28;;
26920;SDS011;14483;47.844;9.660;2022-11-28T07:54:20;15.32;;;6.35;;
26920;SDS011;14483;47.844;9.660;2022-11-28T07:56:46;12.20;;;6.70;;
26920;SDS011;14483;47.844;9.660;2022-11-28T07:59:14;10.93;;;6.72;;
26920;SDS011;14483;47.844;9.660;2022-11-28T08:01:40;15.27;;;6.68;;
26920;SDS011;14483;47.844;9.660;2022-11-28T08:04:07;11.07;;;6.68;;
26920;SDS011;14483;47.844;9.660;2022-11-28T08:06:34;12.57;;;5.90;;
26920;SDS011;14483;47.844;9.660;2022-11-28T08:09:02;12.10;;;6.53;;
26920;SDS011;14483;47.844;9.660;2022-11-28T08:11:28;12.07;;;7.38;;
26920;SDS011;14483;47.844;9.660;2022-11-28T08:13:55;12.70;;;7.82;;
26920;SDS011;14483;47.844;9.660;2022-11-28T08:16:24;12.20;;;6.60;;
26920;SDS011;14483;47.844;9.660;2022-11-28T08:18:51;8.73;;;5.80;;
26920;SDS011;14483;47.844;9.660;2022-11-28T08:21:18;12.60;;;7.15;;
26920;SDS011;14483;47.844;9.660;2022-11-28T08:23:44;20.90;;;10.88;;
26920;SDS011;14483;47.844;9.660;2022-11-28T08:26:12;17.88;;;11.05;;
26920;SDS011;14483;47.844;9.660;2022-11-28T08:28:39;18.42;;;9.48;;
26920;SDS011;14483;47.844;9.660;2022-11-28T08:31:11;16.88;;;10.07;;
26920;SDS011;14483;47.844;9.660;2022-11-28T08:33:39;14.60;;;8.45;;
26920;SDS011;14483;47.844;9.660;2022-11-28T08:36:06;19.73;;;11.13;;
26920;SDS011;14483;47.844;9.660;2022-11-28T08:38:33;19.70;;;11.80;;
26920;SDS011;14483;47.844;9.660;2022-11-28T08:40:59;18.63;;;11.27;;
26920;SDS011;14483;47.844;9.660;2022-11-28T08:43:26;16.45;;;9.02;;
26920;SDS011;14483;47.844;9.660;2022-11-28T08:45:52;11.90;;;7.43;;
26920;SDS011;14483;47.844;9.660;2022-11-28T08:48:18;13.02;;;8.27;;
26920;SDS011;14483;47.844;9.660;2022-11-28T08:50:46;12.73;;;7.45;;
26920;SDS011;14483;47.844;9.660;2022-11-28T08:53:13;16.73;;;8.70;;
26920;SDS011;14483;47.844;9.660;2022-11-28T08:55:39;17.77;;;9.52;;
26920;SDS011;14483;47.844;9.660;2022-11-28T08:58:06;17.73;;;9.25;;
26920;SDS011;14483;47.844;9.660;2022-11-28T09:00:32;16.80;;;9.90;;
26920;SDS011;14483;47.844;9.660;2022-11-28T09:02:58;19.20;;;10.20;;
26920;SDS011;14483;47.844;9.660;2022-11-28T09:05:25;16.27;;;9.00;;
26920;SDS011;14483;47.844;9.660;2022-11-28T09:07:54;13.15;;;8.38;;
26920;SDS011;14483;47.844;9.660;2022-11-28T09:10:20;15.18;;;8.70;;
26920;SDS011;14483;47.844;9.660;2022-11-28T09:12:47;15.20;;;8.57;;
26920;SDS011;14483;47.844;9.660;2022-11-28T09:15:13;16.05;;;7.97;;
26920;SDS011;14483;47.844;9.660;2022-11-28T09:17:39;18.40;;;9.02;;
26920;SDS011;14483;47.844;9.660;2022-11-28T09:20:06;17.33;;;9.27;;
26920;SDS011;14483;47.844;9.660;2022-11-28T09:22:33;16.15;;;9.38;;
26920;SDS011;14483;47.844;9.660;2022-11-28T09:25:00;21.63;;;10.95;;
26920;SDS011;14483;47.844;9.660;2022-11-28T09:27:27;17.98;;;9.75;;
26920;SDS011;14483;47.844;9.660;2022-11-28T09:29:53;18.33;;;10.50;;
26920;SDS011;14483;47.844;9.660;2022-11-28T09:32:19;24.40;;;12.80;;
26920;SDS011;14483;47.844;9.660;2022-11-28T09:34:46;21.85;;;11.95;;
26920;SDS011;14483;47.844;9.660;2022-11-28T09:37:12;22.50;;;12.65;;
26920;SDS011;14483;47.844;9.660;2022-11-28T09:39:39;19.00;;;10.77;;
26920;SDS011;14483;47.844;9.660;2022-11-28T09:42:08;20.17;;;11.15;;
26920;SDS011;14483;47.844;9.660;2022-11-28T09:44:40;17.92;;;10.82;;
26920;SDS011;14483;47.844;9.660;2022-11-28T09:47:09;26.05;;;11.32;;
26920;SDS011;14483;47.844;9.660;2022-11-28T09:49:39;15.77;;;9.23;;
26920;SDS011;14483;47.844;9.660;2022-11-28T09:52:10;15.20;;;9.48;;
26920;SDS011;14483;47.844;9.660;2022-11-28T09:54:41;15.50;;;9.55;;
26920;SDS011;14483;47.844;9.660;2022-11-28T09:57:12;17.92;;;9.27;;
26920;SDS011;14483;47.844;9.660;2022-11-28T09:59:41;16.33;;;9.38;;
26920;SDS011;14483;47.844;9.660;2022-11-28T10:02:13;18.08;;;9.27;;
26920;SDS011;14483;47.844;9.660;2022-11-28T10:04:43;17.73;;;8.40;;
26920;SDS011;14483;47.844;9.660;2022-11-28T10:07:14;12.65;;;8.40;;
26920;SDS011;14483;47.844;9.660;2022-11-28T10:09:43;17.40;;;8.55;;
26920;SDS011;14483;47.844;9.660;2022-11-28T10:12:20;18.73;;;9.65;;
26920;SDS011;14483;47.844;9.660;2022-11-28T10:14:52;16.63;;;10.10;;
26920;SDS011;14483;47.844;9.660;2022-11-28T10:17:22;16.63;;;9.68;;
26920;SDS011;14483;47.844;9.660;2022-11-28T10:19:52;15.75;;;8.75;;
26920;SDS011;14483;47.844;9.660;2022-11-28T10:22:21;18.70;;;11.07;;
26920;SDS011;14483;47.844;9.660;2022-11-28T10:24:49;14.88;;;9.75;;
26920;SDS011;14483;47.844;9.660;2022-11-28T10:27:18;15.68;;;9.60;;
26920;SDS011;14483;47.844;9.660;2022-11-28T10:29:46;14.25;;;9.23;;
26920;SDS011;14483;47.844;9.660;2022-11-28T10:32:15;16.50;;;9.45;;
26920;SDS011;14483;47.844;9.660;2022-11-28T10:34:44;20.17;;;10.15;;
26920;SDS011;14483;47.844;9.660;2022-11-28T10:37:12;18.20;;;9.23;;
26920;SDS011;14483;47.844;9.660;2022-11-28T10:39:41;13.50;;;8.68;;
26920;SDS011;14483;47.844;9.660;2022-11-28T10:42:09;18.25;;;9.43;;
26920;SDS011;14483;47.844;9.660;2022-11-28T10:44:49;14.20;;;8.40;;
26920;SDS011;14483;47.844;9.660;2022-11-28T10:47:18;14.07;;;8.02;;
26920;SDS011;14483;47.844;9.660;2022-11-28T10:49:49;12.77;;;8.13;;
26920;SDS011;14483;47.844;9.660;2022-11-28T10:52:20;14.25;;;8.35;;
26920;SDS011;14483;47.844;9.660;2022-11-28T10:54:54;13.77;;;8.32;;
26920;SDS011;14483;47.844;9.660;2022-11-28T10:57:26;14.45;;;8.20;;
26920;SDS011;14483;47.844;9.660;2022-11-28T11:00:00;19.75;;;8.75;;
26920;SDS011;14483;47.844;9.660;2022-11-28T11:02:29;15.88;;;8.77;;
26920;SDS011;14483;47.844;9.660;2022-11-28T11:04:57;12.85;;;9.10;;
26920;SDS011;14483;47.844;9.660;2022-11-28T11:07:24;15.63;;;9.20;;
26920;SDS011;14483;47.844;9.660;2022-11-28T11:09:52;13.13;;;8.02;;
26920;SDS011;14483;47.844;9.660;2022-11-28T11:12:19;13.40;;;8.50;;
26920;SDS011;14483;47.844;9.660;2022-11-28T11:14:46;14.20;;;9.10;;
26920;SDS011;14483;47.844;9.660;2022-11-28T11:17:24;13.35;;;8.80;;
26920;SDS011;14483;47.844;9.660;2022-11-28T11:19:51;14.30;;;8.90;;
26920;SDS011;14483;47.844;9.660;2022-11-28T11:22:18;14.90;;;9.10;;
26920;SDS011;14483;47.844;9.660;2022-11-28T11:24:57;12.43;;;8.45;;
26920;SDS011;14483;47.844;9.660;2022-11-28T11:27:28;14.07;;;8.10;;
26920;SDS011;14483;47.844;9.660;2022-11-28T11:29:55;15.48;;;8.45;;
26920;SDS011;14483;47.844;9.660;2022-11-28T11:32:24;16.88;;;9.07;;
26920;SDS011;14483;47.844;9.660;2022-11-28T11:34:51;14.98;;;9.25;;
26920;SDS011;14483;47.844;9.660;2022-11-28T11:37:20;13.40;;;9.13;;
26920;SDS011;14483;47.844;9.660;2022-11-28T11:39:54;17.17;;;9.60;;
26920;SDS011;14483;47.844;9.660;2022-11-28T11:42:20;16.65;;;8.90;;
26920;SDS011;14483;47.844;9.660;2022-11-28T11:44:47;16.05;;;8.38;;
26920;SDS011;14483;47.844;9.660;2022-11-28T11:47:13;14.85;;;9.07;;
26920;SDS011;14483;47.844;9.660;2022-11-28T11:49:42;15.27;;;9.35;;
26920;SDS011;14483;47.844;9.660;2022-11-28T11:52:16;13.98;;;8.68;;
26920;SDS011;14483;47.844;9.660;2022-11-28T11:54:51;17.60;;;8.40;;
26920;SDS011;14483;47.844;9.660;2022-11-28T11:57:18;13.48;;;9.00;;
26920;SDS011;14483;47.844;9.660;2022-11-28T11:59:46;15.30;;;8.57;;
26920;SDS011;14483;47.844;9.660;2022-11-28T12:02:17;20.48;;;9.65;;
26920;SDS011;14483;47.844;9.660;2022-11-28T12:04:48;11.52;;;6.35;;
26920;SDS011;14483;47.844;9.660;2022-11-28T12:07:20;15.30;;;9.35;;
26920;SDS011;14483;47.844;9.660;2022-11-28T12:09:47;12.63;;;8.35;;
26920;SDS011;14483;47.844;9.660;2022-11-28T12:12:15;16.05;;;9.07;;
26920;SDS011;14483;47.844;9.660;2022-11-28T12:14:42;13.90;;;9.32;;
26920;SDS011;14483;47.844;9.660;2022-11-28T12:17:24;13.25;;;8.35;;
26920;SDS011;14483;47.844;9.660;2022-11-28T12:19:56;15.75;;;8.00;;
26920;SDS011;14483;47.844;9.660;2022-11-28T12:22:26;17.60;;;9.88;;
26920;SDS011;14483;47.844;9.660;2022-11-28T12:24:59;13.27;;;9.18;;
26920;SDS011;14483;47.844;9.660;2022-11-28T12:27:30;13.57;;;9.27;;
26920;SDS011;14483;47.844;9.660;2022-11-28T12:30:01;15.35;;;9.32;;
26920;SDS011;14483;47.844;9.660;2022-11-28T12:32:32;15.77;;;9.00;;
26920;SDS011;14483;47.844;9.660;2022-11-28T12:37:32;16.20;;;10.00;;
26920;SDS011;14483;47.844;9.660;2022-11-28T12:40:01;13.45;;;8.52;;
26920;SDS011;14483;47.844;9.660;2022-11-28T12:42:33;13.38;;;8.50;;
26920;SDS011;14483;47.844;9.660;2022-11-28T12:45:10;12.23;;;8.83;;
26920;SDS011;14483;47.844;9.660;2022-11-28T12:47:40;13.38;;;8.65;;
26920;SDS011;14483;47.844;9.660;2022-11-28T12:50:14;23.48;;;11.57;;
26920;SDS011;14483;47.844;9.660;2022-11-28T12:52:44;25.92;;;14.70;;
26920;SDS011;14483;47.844;9.660;2022-11-28T12:55:20;16.17;;;9.82;;
26920;SDS011;14483;47.844;9.660;2022-11-28T12:57:50;19.88;;;11.73;;
26920;SDS011;14483;47.844;9.660;2022-11-28T13:00:19;18.38;;;10.23;;
26920;SDS011;14483;47.844;9.660;2022-11-28T13:02:55;21.45;;;10.40;;
26920;SDS011;14483;47.844;9.660;2022-11-28T13:05:31;24.25;;;13.32;;
26920;SDS011;14483;47.844;9.660;2022-11-28T13:08:06;23.33;;;12.75;;
26920;SDS011;14483;47.844;9.660;2022-11-28T13:10:35;23.20;;;12.60;;
26920;SDS011;14483;47.844;9.660;2022-11-28T13:13:05;23.75;;;11.23;;
26920;SDS011;14483;47.844;9.660;2022-11-28T13:15:36;14.57;;;8.90;;
26920;SDS011;14483;47.844;9.660;2022-11-28T13:18:08;13.88;;;9.60;;
26920;SDS011;14483;47.844;9.660;2022-11-28T13:20:37;16.10;;;9.40;;
26920;SDS011;14483;47.844;9.660;2022-11-28T13:23:10;18.35;;;9.35;;
26920;SDS011;14483;47.844;9.660;2022-11-28T13:25:42;23.10;;;13.00;;
26920;SDS011;14483;47.844;9.660;2022-11-28T13:28:14;30.10;;;17.77;;
26920;SDS011;14483;47.844;9.660;2022-11-28T13:30:44;18.60;;;11.98;;
26920;SDS011;14483;47.844;9.660;2022-11-28T13:33:18;31.40;;;16.52;;
26920;SDS011;14483;47.844;9.660;2022-11-28T13:35:47;19.15;;;12.63;;
26920;SDS011;14483;47.844;9.660;2022-11-28T13:38:16;16.90;;;10.07;;
26920;SDS011;14483;47.844;9.660;2022-11-28T13:40:45;16.80;;;10.20;;
26920;SDS011;14483;47.844;9.660;2022-11-28T13:43:13;15.73;;;9.52;;
26920;SDS011;14483;47.844;9.660;2022-11-28T13:45:42;15.32;;;8.63;;
26920;SDS011;14483;47.844;9.660;2022-11-28T13:50:58;12.50;;;8.48;;
26920;SDS011;14483;47.844;9.660;2022-11-28T13:53:26;13.88;;;9.27;;
26920;SDS011;14483;47.844;9.660;2022-11-28T13:56:14;16.40;;;8.48;;
26920;SDS011;14483;47.844;9.660;2022-11-28T13:58:45;16.63;;;10.05;;
26920;SDS011;14483;47.844;9.660;2022-11-28T14:01:14;24.35;;;13.15;;
26920;SDS011;14483;47.844;9.660;2022-11-28T14:03:43;25.83;;;13.57;;
26920;SDS011;14483;47.844;9.660;2022-11-28T14:06:10;22.80;;;12.35;;
26920;SDS011;14483;47.844;9.660;2022-11-28T14:08:40;21.17;;;12.57;;
26920;SDS011;14483;47.844;9.660;2022-11-28T14:11:19;18.90;;;11.48;;
26920;SDS011;14483;47.844;9.660;2022-11-28T14:13:52;21.50;;;12.32;;
26920;SDS011;14483;47.844;9.660;2022-11-28T14:16:23;22.10;;;13.10;;
26920;SDS011;14483;47.844;9.660;2022-11-28T14:18:58;25.23;;;13.52;;
26920;SDS011;14483;47.844;9.660;2022-11-28T14:21:30;26.73;;;14.10;;
26920;SDS011;14483;47.844;9.660;2022-11-28T14:24:00;21.63;;;13.32;;
26920;SDS011;14483;47.844;9.660;2022-11-28T14:26:29;21.10;;;12.55;;
26920;SDS011;14483;47.844;9.660;2022-11-28T14:28:55;26.95;;;12.13;;
26920;SDS011;14483;47.844;9.660;2022-11-28T14:31:23;20.38;;;11.95;;
26920;SDS011;14483;47.844;9.660;2022-11-28T14:33:55;23.15;;;12.23;;
26920;SDS011;14483;47.844;9.660;2022-11-28T14:36:23;18.25;;;10.25;;
26920;SDS011;14483;47.844;9.660;2022-11-28T14:39:05;14.52;;;8.70;;
26920;SDS011;14483;47.844;9.660;2022-11-28T14:47:12;12.27;;;6.57;;
26920;SDS011;14483;47.844;9.660;2022-11-28T14:49:39;11.40;;;7.28;;
26920;SDS011;14483;47.844;9.660;2022-11-28T14:54:48;14.68;;;8.35;;
26920;SDS011;14483;47.844;9.660;2022-11-28T14:57:16;15.00;;;7.55;;
26920;SDS011;14483;47.844;9.660;2022-11-28T14:59:43;10.15;;;6.93;;
26920;SDS011;14483;47.844;9.660;2022-11-28T15:04:57;9.90;;;7.20;;